Time;durP1;ratioP1;P1;durP2;ratioP2;P2;SDS_P1;SDS_P2;PMS_P1;PMS_P2;Temp;Humidity;BMP_temperature;BMP_pressure;BME280_temperature;BME280_humidity;BME280_pressure;Samples;Min_cycle;Max_cycle;Signal;HPM_P1;HPM_P2
2022/07/16 00:03:50;;;;;;;;;;;;;;;17.14;60.63;100739.94;10547882;28;19924;-64
2022/07/16 00:08:53;;;;;;;;;;;;;;;17.03;61.01;100741.19;10547748;28;19924;-60
2022/07/16 00:13:56;;;;;;;;;;;;;;;17.07;61.26;100743.66;10547514;28;19928;-59
2022/07/16 00:19:20;;;;;;;;;;;;;;;17.07;60.81;100748.91;10547281;28;19924;-63
2022/07/16 00:24:23;;;;;;;;;;;;;;;17.03;60.73;100749.06;10546866;28;19924;-63
2022/07/16 00:29:26;;;;;;;;;;;;;;;17.02;61.05;100740.31;10546728;28;19924;-60
2022/07/16 00:34:30;;;;;;;;;;;;;;;17.05;61.31;100748.09;10546587;28;20238;-60
2022/07/16 00:39:33;;;;;;;;;;;;;;;17.03;61.57;100734.16;10546612;28;19924;-59
2022/07/16 00:44:36;;;;;;;;;;;;;;;17.08;61.63;100736.66;10546175;28;19934;-62
2022/07/16 00:49:40;;;;;;;;;;;;;;;17.09;61.65;100733.97;10546119;28;19950;-58
2022/07/16 00:54:43;;;;;;;;;;;;;;;17.10;61.67;100734.84;10545722;28;19924;-61
2022/07/16 00:59:46;;;;;;;;;;;;;;;17.11;61.23;100729.56;10545616;28;20349;-64
2022/07/16 01:04:51;;;;;;;;;;;;;;;17.13;61.22;100734.75;10545464;28;19924;-63
2022/07/16 01:09:54;;;;;;;;;;;;;;;17.16;62.37;100727.63;10545245;28;19966;-68
2022/07/16 01:14:58;;;;;;;;;;;;;;;17.12;61.88;100722.50;10544960;28;19928;-63
2022/07/16 01:20:02;;;;;;;;;;;;;;;17.16;60.51;100718.91;10544694;28;19924;-62
2022/07/16 01:25:10;;;;;;;;;;;;;;;17.27;59.93;100716.81;10544678;28;19935;-64
2022/07/16 01:30:13;;;;;;;;;;;;;;;17.28;59.56;100715.88;10544731;28;19924;-66
2022/07/16 01:35:16;;;;;;;;;;;;;;;17.34;59.37;100713.09;10544118;28;19923;-67
2022/07/16 01:40:21;;;;;;;;;;;;;;;17.26;59.26;100713.31;10544016;28;20364;-63
2022/07/16 01:45:24;;;;;;;;;;;;;;;17.13;59.38;100719.00;10544026;28;20336;-64
2022/07/16 01:50:27;;;;;;;;;;;;;;;17.26;59.00;100713.31;10544125;28;19934;-64
2022/07/16 01:55:31;;;;;;;;;;;;;;;17.20;59.18;100702.16;10543738;28;20375;-65
2022/07/16 02:00:36;;;;;;;;;;;;;;;17.08;59.51;100706.00;10543307;28;19930;-67
2022/07/16 02:05:39;;;;;;;;;;;;;;;17.03;59.70;100704.47;10543714;28;19923;-66
2022/07/16 02:10:43;;;;;;;;;;;;;;;16.96;60.31;100705.56;10543288;28;19928;-65
2022/07/16 02:15:46;;;;;;;;;;;;;;;16.95;60.36;100696.81;10542956;28;20017;-63
2022/07/16 02:20:50;;;;;;;;;;;;;;;16.94;60.24;100695.13;10542740;28;20472;-65
2022/07/16 02:25:54;;;;;;;;;;;;;;;17.04;60.42;100693.06;10542907;28;20015;-67
2022/07/16 02:30:57;;;;;;;;;;;;;;;17.06;60.17;100691.25;10542989;28;20244;-65
2022/07/16 02:36:00;;;;;;;;;;;;;;;17.17;60.28;100689.16;10542846;28;19924;-63
2022/07/16 02:41:04;;;;;;;;;;;;;;;17.08;60.60;100692.91;10542724;28;19924;-65
2022/07/16 02:46:07;;;;;;;;;;;;;;;17.10;60.84;100695.50;10547162;28;19924;-67
2022/07/16 02:51:10;;;;;;;;;;;;;;;16.97;61.16;100689.78;10550776;28;20333;-64
2022/07/16 02:56:15;;;;;;;;;;;;;;;16.99;60.42;100682.72;10550527;28;19931;-65
2022/07/16 03:01:18;;;;;;;;;;;;;;;16.97;60.75;100681.03;10550439;28;19931;-66
2022/07/16 03:06:21;;;;;;;;;;;;;;;16.93;60.72;100688.13;10550260;28;19935;-65
2022/07/16 03:11:26;;;;;;;;;;;;;;;17.06;60.11;100683.38;10550105;28;19932;-70
2022/07/16 03:16:29;;;;;;;;;;;;;;;17.11;60.29;100691.97;10549627;28;19938;-63
2022/07/16 03:21:32;;;;;;;;;;;;;;;17.03;60.46;100686.94;10549409;28;19924;-68
2022/07/16 03:26:36;;;;;;;;;;;;;;;16.94;60.43;100689.88;10549847;28;19924;-64
2022/07/16 03:31:42;;;;;;;;;;;;;;;16.93;61.07;100674.16;10549189;28;20010;-65
2022/07/16 03:36:45;;;;;;;;;;;;;;;16.78;61.54;100677.25;10548951;28;19924;-64
2022/07/16 03:41:49;;;;;;;;;;;;;;;16.81;61.41;100675.41;10548951;28;19924;-65
2022/07/16 03:46:52;;;;;;;;;;;;;;;16.79;61.55;100676.38;10548801;28;19924;-65
2022/07/16 03:51:55;;;;;;;;;;;;;;;16.79;61.55;100676.38;10548596;28;19924;-63
2022/07/16 03:56:59;;;;;;;;;;;;;;;16.79;61.38;100676.38;10547644;28;20241;-64
2022/07/16 04:02:02;;;;;;;;;;;;;;;16.89;61.91;100668.19;10547915;28;19935;-69
2022/07/16 04:07:05;;;;;;;;;;;;;;;16.96;62.34;100666.22;10547813;28;19934;-66
2022/07/16 04:12:10;;;;;;;;;;;;;;;16.84;62.41;100663.97;10547443;28;19934;-66
2022/07/16 04:17:13;;;;;;;;;;;;;;;16.89;62.07;100665.56;10547212;28;19946;-68
2022/07/16 04:22:16;;;;;;;;;;;;;;;16.96;62.38;100653.09;10547209;28;19924;-64
2022/07/16 04:27:22;;;;;;;;;;;;;;;17.02;62.24;100661.63;10547363;28;19928;-64
2022/07/16 04:32:25;;;;;;;;;;;;;;;16.97;62.49;100681.03;10546676;28;19924;-64
2022/07/16 04:37:28;;;;;;;;;;;;;;;16.98;62.89;100675.75;10546293;28;19943;-70
2022/07/16 04:42:32;;;;;;;;;;;;;;;17.02;62.63;100679.13;10546282;28;19961;-67
2022/07/16 04:47:35;;;;;;;;;;;;;;;17.16;61.97;100680.41;10546276;28;19924;-64
2022/07/16 04:52:38;;;;;;;;;;;;;;;17.18;61.52;100675.13;10546147;28;19924;-66
2022/07/16 04:57:42;;;;;;;;;;;;;;;17.13;61.66;100690.16;10546060;28;19942;-65
2022/07/16 05:02:57;;;;;;;;;;;;;;;17.07;62.00;100683.31;10545654;28;19924;-63
2022/07/16 05:08:03;;;;;;;;;;;;;;;17.14;62.20;100678.75;10544659;28;19979;-72
2022/07/16 05:13:10;;;;;;;;;;;;;;;17.31;62.04;100679.06;10544996;28;20375;-66
2022/07/16 05:18:13;;;;;;;;;;;;;;;17.28;62.39;100676.53;10544979;28;19958;-66
2022/07/16 05:23:16;;;;;;;;;;;;;;;17.23;62.29;100676.69;10544515;28;19924;-64
2022/07/16 05:28:20;;;;;;;;;;;;;;;17.31;62.26;100681.69;10544459;28;19927;-66
2022/07/16 05:33:23;;;;;;;;;;;;;;;17.31;62.28;100668.56;10544497;28;19923;-68
2022/07/16 05:38:26;;;;;;;;;;;;;;;17.42;62.27;100671.69;10542323;28;19931;-62
2022/07/16 05:43:30;;;;;;;;;;;;;;;17.55;62.24;100656.44;10543391;28;19924;-63
2022/07/16 05:48:33;;;;;;;;;;;;;;;17.61;62.55;100658.84;10542912;28;19949;-67
2022/07/16 05:53:37;;;;;;;;;;;;;;;17.44;62.38;100655.91;10537904;28;19924;-64
2022/07/16 05:58:42;;;;;;;;;;;;;;;17.64;63.17;100656.97;10542543;28;19939;-65
2022/07/16 06:03:45;;;;;;;;;;;;;;;17.71;62.69;100650.59;10539954;28;19924;-67
2022/07/16 06:08:48;;;;;;;;;;;;;;;17.75;62.58;100646.09;10542295;28;20348;-66
2022/07/16 06:13:52;;;;;;;;;;;;;;;17.80;62.52;100641.56;10542074;28;19947;-65
2022/07/16 06:18:55;;;;;;;;;;;;;;;17.81;62.26;100644.13;10541700;28;19934;-68
2022/07/16 06:23:58;;;;;;;;;;;;;;;17.84;62.24;100646.66;10535388;28;20383;-64
2022/07/16 06:29:02;;;;;;;;;;;;;;;18.02;62.79;100637.25;10537623;28;19928;-67
2022/07/16 06:34:05;;;;;;;;;;;;;;;17.96;62.18;100640.97;10535617;28;20345;-68
2022/07/16 06:39:08;;;;;;;;;;;;;;;18.05;62.36;100635.38;10541452;28;19924;-66
2022/07/16 06:44:13;;;;;;;;;;;;;;;18.20;62.07;100632.22;10541293;28;19924;-66
2022/07/16 06:49:16;;;;;;;;;;;;;;;18.35;61.63;100626.38;10538394;28;19946;-65
2022/07/16 06:54:19;;;;;;;;;;;;;;;18.41;61.16;100623.53;10541234;28;20345;-69
2022/07/16 06:59:23;;;;;;;;;;;;;;;18.43;61.30;100628.72;10541269;28;19935;-66
2022/07/16 07:04:26;;;;;;;;;;;;;;;18.41;61.17;100626.16;10538674;28;20329;-69
2022/07/16 07:09:29;;;;;;;;;;;;;;;18.53;61.52;100627.50;10540992;28;19924;-66
2022/07/16 07:14:33;;;;;;;;;;;;;;;18.68;61.85;100626.03;10541009;28;19924;-70
2022/07/16 07:19:36;;;;;;;;;;;;;;;18.76;61.26;100624.81;10540888;28;19924;-65
2022/07/16 07:24:40;;;;;;;;;;;;;;;18.70;60.18;100617.19;10540670;28;19977;-65
2022/07/16 07:29:52;;;;;;;;;;;;;;;18.88;60.38;100615.59;10535720;28;19980;-66
2022/07/16 07:34:55;;;;;;;;;;;;;;;18.78;59.75;100614.22;10549168;28;20003;-65
2022/07/16 07:39:58;;;;;;;;;;;;;;;18.82;59.64;100611.44;10548666;28;19924;-67
2022/07/16 07:45:02;;;;;;;;;;;;;;;18.98;59.50;100609.88;10548699;28;19924;-65
2022/07/16 07:50:05;;;;;;;;;;;;;;;18.96;59.25;100608.25;10548343;28;19931;-66
2022/07/16 07:55:09;;;;;;;;;;;;;;;19.06;59.81;100606.94;10548348;28;19947;-67
2022/07/16 08:00:15;;;;;;;;;;;;;;;19.32;58.76;100604.13;10540985;28;19939;-65
2022/07/16 08:05:18;;;;;;;;;;;;;;;19.25;58.02;100598.25;10505833;28;19930;-64
2022/07/16 08:10:21;;;;;;;;;;;;;;;19.10;57.95;100601.47;10505844;28;20353;-67
2022/07/16 08:15:26;;;;;;;;;;;;;;;19.28;57.05;100599.88;10505423;28;19924;-65
2022/07/16 08:20:29;;;;;;;;;;;;;;;19.65;56.04;100592.16;10505088;28;19924;-65
2022/07/16 08:25:46;;;;;;;;;;;;;;;19.91;54.85;100583.97;10423000;28;20210;-64
2022/07/16 08:30:50;;;;;;;;;;;;;;;20.08;53.92;100580.56;10422384;28;19925;-69
2022/07/16 08:35:53;;;;;;;;;;;;;;;20.14;53.43;100578.50;10422064;28;19933;-70
2022/07/16 08:40:57;;;;;;;;;;;;;;;20.15;52.48;100569.69;10431345;28;20327;-71
2022/07/16 08:46:01;;;;;;;;;;;;;;;20.34;52.35;100567.97;10454598;28;19932;-67
2022/07/16 08:51:04;;;;;;;;;;;;;;;20.27;51.40;100569.16;10420250;28;20406;-67
2022/07/16 08:56:08;;;;;;;;;;;;;;;20.36;51.50;100568.72;10421858;28;19999;-70
2022/07/16 09:01:12;;;;;;;;;;;;;;;20.23;51.17;100553.53;10422436;28;19925;-67
2022/07/16 09:06:15;;;;;;;;;;;;;;;20.17;50.89;100556.47;10421665;28;19925;-67
2022/07/16 09:11:18;;;;;;;;;;;;;;;20.06;51.29;100549.03;10420495;28;19925;-67
2022/07/16 09:16:29;;;;;;;;;;;;;;;20.06;51.88;100549.03;10420440;28;20266;-69
2022/07/16 09:21:32;;;;;;;;;;;;;;;20.38;52.09;100544.94;10441864;28;19930;-69
2022/07/16 09:26:35;;;;;;;;;;;;;;;20.73;51.00;100543.22;10544716;28;19924;-66
2022/07/16 09:31:40;;;;;;;;;;;;;;;20.84;50.18;100548.84;10544707;28;19924;-66
2022/07/16 09:37:00;;;;;;;;;;;;;;;20.89;49.97;100550.34;10544487;28;19928;-65
2022/07/16 09:42:03;;;;;;;;;;;;;;;21.17;50.24;100549.84;10544005;28;19924;-67
2022/07/16 09:47:09;;;;;;;;;;;;;;;21.15;50.23;100543.78;10544110;28;20035;-66
2022/07/16 09:52:27;;;;;;;;;;;;;;;21.26;50.75;100541.47;10543521;28;19924;-67
2022/07/16 09:57:30;;;;;;;;;;;;;;;21.16;50.75;100541.06;10543429;28;19924;-66
2022/07/16 10:02:35;;;;;;;;;;;;;;;22.37;47.58;100524.00;10543449;28;20015;-68
2022/07/16 10:07:38;;;;;;;;;;;;;;;26.00;40.37;100509.56;10543145;28;19935;-66
2022/07/16 10:12:42;;;;;;;;;;;;;;;22.68;46.44;100516.94;10543102;28;19924;-66
2022/07/16 10:17:47;;;;;;;;;;;;;;;24.66;43.09;100500.22;10543088;28;19989;-67
2022/07/16 10:22:50;;;;;;;;;;;;;;;24.35;43.54;100497.84;10542667;28;20333;-66
2022/07/16 10:27:54;;;;;;;;;;;;;;;23.11;45.54;100496.75;10542691;28;19972;-66
2022/07/16 10:33:16;;;;;;;;;;;;;;;22.96;45.71;100502.09;10540666;28;19935;-68
2022/07/16 10:38:21;;;;;;;;;;;;;;;22.78;45.30;100499.59;10539355;28;20002;-68
2022/07/16 10:43:25;;;;;;;;;;;;;;;22.43;45.18;100490.16;10539123;28;19988;-69
2022/07/16 10:48:50;;;;;;;;;;;;;;;22.32;45.98;100481.97;10540865;28;19924;-64
2022/07/16 10:54:28;;;;;;;;;;;;;;;22.49;46.46;100465.97;10539412;28;19928;-66
2022/07/16 10:59:32;;;;;;;;;;;;;;;23.19;45.67;100473.34;10542236;28;19925;-68
2022/07/16 11:04:37;;;;;;;;;;;;;;;23.06;45.62;100471.50;10500671;28;20386;-69
2022/07/16 11:09:42;;;;;;;;;;;;;;;22.64;46.61;100470.41;10508264;28;19925;-67
2022/07/16 11:14:46;;;;;;;;;;;;;;;22.39;47.36;100471.88;10507727;28;19925;-65
2022/07/16 11:19:52;;;;;;;;;;;;;;;21.96;47.31;100468.13;10522774;28;20023;-64
2022/07/16 11:24:56;;;;;;;;;;;;;;;21.73;47.60;100458.78;10549292;28;19924;-64
2022/07/16 11:30:00;;;;;;;;;;;;;;;21.60;47.75;100467.47;10548068;28;19924;-66
2022/07/16 11:35:05;;;;;;;;;;;;;;;21.34;48.56;100474.13;10549265;28;19980;-66
2022/07/16 11:40:09;;;;;;;;;;;;;;;21.42;48.88;100465.78;10549367;28;19923;-63
2022/07/16 11:45:12;;;;;;;;;;;;;;;21.29;48.89;100452.38;10548883;28;19934;-66
2022/07/16 11:50:26;;;;;;;;;;;;;;;21.25;49.34;100457.88;10548654;28;19943;-66
2022/07/16 11:55:29;;;;;;;;;;;;;;;21.38;49.74;100457.16;10548502;28;19924;-65
2022/07/16 12:00:42;;;;;;;;;;;;;;;21.46;49.46;100454.13;10547824;28;20261;-69
2022/07/16 12:05:46;;;;;;;;;;;;;;;21.46;48.96;100443.56;10531037;28;19930;-67
2022/07/16 12:10:56;;;;;;;;;;;;;;;21.41;49.37;100450.88;10547692;28;19934;-70
2022/07/16 12:16:00;;;;;;;;;;;;;;;21.59;49.58;100436.66;10547278;28;19935;-67
2022/07/16 12:21:22;;;;;;;;;;;;;;;21.87;48.51;100429.00;10547212;28;19924;-71
2022/07/16 12:26:30;;;;;;;;;;;;;;;21.90;48.93;100431.47;10547184;28;20264;-65
2022/07/16 12:31:35;;;;;;;;;;;;;;;22.05;49.08;100421.84;10546684;28;20417;-66
2022/07/16 12:36:39;;;;;;;;;;;;;;;21.81;48.58;100421.41;10547180;28;20023;-65
2022/07/16 12:41:45;;;;;;;;;;;;;;;21.48;48.65;100428.50;10547266;28;19930;-66
2022/07/16 12:46:49;;;;;;;;;;;;;;;21.30;48.41;100410.97;10547323;28;19977;-66
2022/07/16 12:52:00;;;;;;;;;;;;;;;21.15;48.90;100409.16;10546442;28;19924;-69
2022/07/16 13:02:26;;;;;;;;;;;;;;;21.02;49.64;100419.47;10545755;28;20001;-69
2022/07/16 13:07:29;;;;;;;;;;;;;;;20.81;51.63;100451.38;10545467;28;20461;-68
2022/07/16 13:12:33;;;;;;;;;;;;;;;20.25;58.71;100476.09;10545413;28;19924;-61
2022/07/16 13:17:36;;;;;;;;;;;;;;;19.72;65.45;100496.16;10545169;28;19935;-65
2022/07/16 13:22:40;;;;;;;;;;;;;;;19.30;74.38;100553.31;10544608;28;20256;-64
2022/07/16 13:27:44;;;;;;;;;;;;;;;18.04;88.30;100564.50;10544043;28;19924;-69
2022/07/16 13:32:50;;;;;;;;;;;;;;;17.03;100.00;100578.56;10544416;28;20363;-63
2022/07/16 13:37:54;;;;;;;;;;;;;;;17.02;100.00;100577.72;10544444;28;19932;-65
2022/07/16 13:42:58;;;;;;;;;;;;;;;16.98;100.00;100588.38;10544215;28;19925;-67
2022/07/16 13:48:01;;;;;;;;;;;;;;;17.07;100.00;100573.16;10544006;28;19924;-66
2022/07/16 13:53:05;;;;;;;;;;;;;;;17.14;100.00;100571.19;10543764;28;20000;-63
2022/07/16 13:58:17;;;;;;;;;;;;;;;17.28;100.00;100561.09;10543580;28;19925;-66
2022/07/16 14:03:24;;;;;;;;;;;;;;;17.27;100.00;100551.53;10543532;28;20238;-65
2022/07/16 14:08:28;;;;;;;;;;;;;;;17.29;100.00;100555.78;10543429;28;19924;-64
2022/07/16 14:13:32;;;;;;;;;;;;;;;17.36;100.00;100555.59;10528872;28;20331;-67
2022/07/16 14:18:36;;;;;;;;;;;;;;;17.27;100.00;100541.88;10543046;28;19931;-67
2022/07/16 14:23:39;;;;;;;;;;;;;;;17.33;100.00;100543.44;10542584;28;19924;-66
2022/07/16 14:28:43;;;;;;;;;;;;;;;17.44;100.00;100537.81;10542716;28;19924;-63
2022/07/16 14:33:48;;;;;;;;;;;;;;;17.39;100.00;100543.22;10542762;28;19955;-63
2022/07/16 14:38:51;;;;;;;;;;;;;;;17.63;100.00;100554.66;10543274;28;19935;-62
2022/07/16 14:43:56;;;;;;;;;;;;;;;18.24;100.00;100538.34;10551026;28;20321;-67
2022/07/16 14:48:59;;;;;;;;;;;;;;;19.00;99.16;100521.22;10550934;28;19934;-61
2022/07/16 14:54:02;;;;;;;;;;;;;;;18.72;100.00;100519.81;10551207;28;19924;-61
2022/07/16 14:59:07;;;;;;;;;;;;;;;18.60;100.00;100530.81;10550457;28;19932;-65
2022/07/16 15:04:10;;;;;;;;;;;;;;;18.84;95.90;100516.69;10550233;28;19978;-64
2022/07/16 15:09:16;;;;;;;;;;;;;;;19.18;92.13;100499.41;10550342;28;19924;-64
2022/07/16 15:14:21;;;;;;;;;;;;;;;19.53;90.37;100496.09;10550061;28;19924;-63
2022/07/16 15:19:24;;;;;;;;;;;;;;;19.37;89.45;100500.38;10549622;28;19931;-68
2022/07/16 15:24:27;;;;;;;;;;;;;;;18.97;89.58;100515.22;10549375;28;19935;-65
2022/07/16 15:29:31;;;;;;;;;;;;;;;18.83;91.11;100554.41;10549318;28;19924;-65
2022/07/16 15:34:34;;;;;;;;;;;;;;;17.93;81.46;100593.78;10549114;28;20002;-64
2022/07/16 15:39:38;;;;;;;;;;;;;;;17.12;80.28;100567.75;10549239;28;19924;-67
2022/07/16 15:44:42;;;;;;;;;;;;;;;16.91;80.32;100561.47;10548626;28;19924;-61
2022/07/16 15:49:45;;;;;;;;;;;;;;;16.70;80.42;100553.44;10548688;28;19930;-71
2022/07/16 15:54:48;;;;;;;;;;;;;;;16.70;81.47;100563.94;10548917;28;19928;-69
2022/07/16 15:59:53;;;;;;;;;;;;;;;16.62;82.21;100563.31;10547345;28;19924;-64
2022/07/16 16:04:56;;;;;;;;;;;;;;;16.52;81.58;100575.84;10517111;28;19925;-66
2022/07/16 16:09:59;;;;;;;;;;;;;;;16.46;82.34;100570.81;10505914;28;19924;-64
2022/07/16 16:15:04;;;;;;;;;;;;;;;16.39;83.56;100578.84;10505861;28;19925;-67
2022/07/16 16:20:07;;;;;;;;;;;;;;;16.42;82.65;100568.25;10505915;28;20231;-65
2022/07/16 16:25:11;;;;;;;;;;;;;;;16.12;82.59;100570.03;10510467;28;19933;-66
2022/07/16 16:30:15;;;;;;;;;;;;;;;15.97;83.95;100566.13;10504988;28;20268;-67
2022/07/16 16:35:18;;;;;;;;;;;;;;;15.97;86.48;100568.72;10504912;28;19924;-65
2022/07/16 16:40:22;;;;;;;;;;;;;;;15.91;87.07;100561.03;10502983;28;19924;-67
2022/07/16 16:45:26;;;;;;;;;;;;;;;16.03;86.55;100572.94;10502977;28;19934;-65
2022/07/16 16:50:29;;;;;;;;;;;;;;;16.13;87.53;100559.50;10504299;28;19924;-66
2022/07/16 16:55:33;;;;;;;;;;;;;;;16.24;87.38;100561.81;10504225;28;19924;-67
2022/07/16 17:00:38;;;;;;;;;;;;;;;16.29;86.87;100566.94;10504454;28;20015;-65
2022/07/16 17:05:41;;;;;;;;;;;;;;;16.19;88.13;100550.63;10502571;28;19925;-65
2022/07/16 17:10:44;;;;;;;;;;;;;;;16.03;88.87;100554.63;10503617;28;19939;-63
2022/07/16 17:15:48;;;;;;;;;;;;;;;16.17;88.24;100555.03;10503242;28;19973;-64
2022/07/16 17:20:51;;;;;;;;;;;;;;;16.25;87.25;100560.94;10502705;28;20334;-65
2022/07/16 17:25:54;;;;;;;;;;;;;;;15.93;89.41;100559.25;10503473;28;19925;-67
2022/07/16 17:30:59;;;;;;;;;;;;;;;15.92;90.27;100562.78;10502540;28;19928;-70
2022/07/16 17:36:02;;;;;;;;;;;;;;;16.19;88.82;100561.09;10502663;28;19924;-70
2022/07/16 17:41:05;;;;;;;;;;;;;;;16.38;88.38;100582.34;10502237;28;19924;-65
2022/07/16 17:46:12;;;;;;;;;;;;;;;16.40;88.79;100591.91;10502172;28;20314;-69
2022/07/16 17:51:15;;;;;;;;;;;;;;;16.34;89.24;100601.72;10501958;28;19924;-65
2022/07/16 17:56:18;;;;;;;;;;;;;;;16.26;88.25;100601.06;10501685;28;20349;-67
2022/07/16 18:01:23;;;;;;;;;;;;;;;16.26;87.32;100612.41;10501629;28;19985;-69
2022/07/16 18:06:26;;;;;;;;;;;;;;;16.29;85.35;100617.53;10501540;28;19925;-64
2022/07/16 18:11:29;;;;;;;;;;;;;;;16.25;84.58;100631.66;10501543;28;19938;-67
2022/07/16 18:16:34;;;;;;;;;;;;;;;16.22;82.87;100642.22;10500790;28;19928;-65
2022/07/16 18:21:38;;;;;;;;;;;;;;;16.22;81.10;100652.69;10501165;28;19981;-63
2022/07/16 18:26:42;;;;;;;;;;;;;;;16.29;81.29;100656.00;10501345;28;19924;-67
2022/07/16 18:31:47;;;;;;;;;;;;;;;16.08;79.15;100657.47;10501223;28;19924;-68
2022/07/16 18:36:50;;;;;;;;;;;;;;;16.01;79.11;100659.38;10501040;28;19928;-68
2022/07/16 18:41:53;;;;;;;;;;;;;;;16.03;77.08;100654.94;10501080;28;19925;-64
2022/07/16 18:46:57;;;;;;;;;;;;;;;16.06;76.70;100669.72;10500839;28;19931;-65
2022/07/16 18:52:00;;;;;;;;;;;;;;;15.97;76.25;100673.47;10500763;28;19924;-65
2022/07/16 18:57:04;;;;;;;;;;;;;;;15.95;75.13;100680.50;10500769;28;19934;-67
2022/07/16 19:02:08;;;;;;;;;;;;;;;15.88;74.54;100684.16;10500350;28;19935;-64
2022/07/16 19:07:12;;;;;;;;;;;;;;;15.77;73.88;100690.59;10500318;28;19999;-68
2022/07/16 19:12:15;;;;;;;;;;;;;;;15.76;73.37;100684.50;10500450;28;19935;-65
2022/07/16 19:17:20;;;;;;;;;;;;;;;15.73;72.99;100681.97;10500376;28;20227;-65
2022/07/16 19:22:23;;;;;;;;;;;;;;;15.55;71.85;100687.66;10499761;28;19924;-71
2022/07/16 19:27:26;;;;;;;;;;;;;;;15.50;72.38;100700.00;10502979;28;19924;-69
2022/07/16 19:32:30;;;;;;;;;;;;;;;15.45;73.17;100686.16;10507471;28;20015;-65
2022/07/16 19:37:33;;;;;;;;;;;;;;;15.56;72.97;100693.75;10507323;28;19970;-68
2022/07/16 19:42:37;;;;;;;;;;;;;;;15.42;72.57;100704.56;10507044;28;20023;-65
2022/07/16 19:47:42;;;;;;;;;;;;;;;15.38;73.37;100695.03;10506594;28;19929;-68
2022/07/16 19:52:46;;;;;;;;;;;;;;;15.41;73.12;100696.75;10506675;28;19931;-69
2022/07/16 19:58:04;;;;;;;;;;;;;;;15.44;75.01;100702.78;10506504;28;19934;-66
2022/07/16 20:03:10;;;;;;;;;;;;;;;15.16;80.60;100699.03;10506404;28;19935;-68
2022/07/16 20:08:33;;;;;;;;;;;;;;;15.12;83.49;100713.06;10506111;28;19925;-68
2022/07/16 20:13:36;;;;;;;;;;;;;;;14.91;90.44;100714.41;10505765;28;19935;-66
2022/07/16 20:18:41;;;;;;;;;;;;;;;14.82;90.47;100711.16;10506039;28;20011;-68
2022/07/16 20:23:44;;;;;;;;;;;;;;;14.96;89.92;100714.34;10505450;28;19967;-64
2022/07/16 20:28:47;;;;;;;;;;;;;;;14.76;91.02;100721.72;10505423;28;19924;-65
2022/07/16 20:33:51;;;;;;;;;;;;;;;14.77;91.68;100726.91;10505096;28;19925;-64
2022/07/16 20:38:54;;;;;;;;;;;;;;;14.59;92.45;100723.84;10504619;28;19947;-65
2022/07/16 20:43:57;;;;;;;;;;;;;;;14.63;93.55;100728.13;10504929;28;20006;-67
2022/07/16 20:49:04;;;;;;;;;;;;;;;14.45;94.55;100742.41;10504466;28;19936;-64
2022/07/16 20:54:08;;;;;;;;;;;;;;;14.59;95.30;100735.16;10504535;28;19924;-66
2022/07/16 20:59:11;;;;;;;;;;;;;;;14.71;94.76;100753.19;10504311;28;20011;-68
2022/07/16 21:04:15;;;;;;;;;;;;;;;14.72;95.12;100754.06;10503685;28;19924;-67
2022/07/16 21:09:19;;;;;;;;;;;;;;;14.58;96.43;100761.31;10503942;28;20337;-64
2022/07/16 21:14:22;;;;;;;;;;;;;;;14.51;98.32;100760.56;10504872;28;19928;-68
2022/07/16 21:19:27;;;;;;;;;;;;;;;14.51;98.56;100763.16;10504707;28;20266;-65
2022/07/16 21:24:30;;;;;;;;;;;;;;;14.67;98.39;100771.56;10504151;28;20341;-65
2022/07/16 21:29:33;;;;;;;;;;;;;;;14.66;98.12;100775.06;10502665;28;20357;-69
2022/07/16 21:34:37;;;;;;;;;;;;;;;14.68;98.15;100768.06;10502599;28;19930;-66
2022/07/16 21:39:41;;;;;;;;;;;;;;;14.71;98.55;100774.09;10502539;28;19924;-65
2022/07/16 21:44:44;;;;;;;;;;;;;;;14.73;98.19;100787.13;10501923;28;20265;-65
2022/07/16 21:49:49;;;;;;;;;;;;;;;14.65;99.48;100794.28;10501427;28;19925;-72
2022/07/16 21:54:52;;;;;;;;;;;;;;;14.66;99.64;100791.63;10501976;28;19939;-67
2022/07/16 21:59:56;;;;;;;;;;;;;;;14.64;100.00;100793.41;10507928;28;20264;-65
2022/07/16 22:05:01;;;;;;;;;;;;;;;14.76;100.00;100795.78;10514142;28;20260;-63
2022/07/16 22:10:05;;;;;;;;;;;;;;;14.71;100.00;100805.44;10515397;28;19924;-67
2022/07/16 22:15:09;;;;;;;;;;;;;;;14.77;100.00;100812.31;10514289;28;19935;-67
2022/07/16 22:25:34;;;;;;;;;;;;;;;14.72;100.00;100811.56;10456969;28;20245;-63
2022/07/16 22:30:37;;;;;;;;;;;;;;;14.70;100.00;100821.16;10459950;28;19963;-63
2022/07/16 22:35:41;;;;;;;;;;;;;;;14.76;100.00;100823.66;10459525;28;19965;-66
2022/07/16 22:40:44;;;;;;;;;;;;;;;14.73;100.00;100826.31;10459484;28;19929;-69
2022/07/16 22:45:47;;;;;;;;;;;;;;;14.78;100.00;100816.63;10458367;28;19925;-66
2022/07/16 22:50:52;;;;;;;;;;;;;;;14.78;100.00;100821.88;10459198;28;19986;-65
2022/07/16 22:55:55;;;;;;;;;;;;;;;14.87;100.00;100821.69;10458646;28;19931;-71
2022/07/16 23:00:58;;;;;;;;;;;;;;;14.83;100.00;100836.56;10461391;28;20027;-65
2022/07/16 23:06:03;;;;;;;;;;;;;;;14.71;100.00;100835.94;10466762;28;20029;-63
2022/07/16 23:11:06;;;;;;;;;;;;;;;14.68;100.00;100847.31;10466787;28;20012;-64
2022/07/16 23:16:09;;;;;;;;;;;;;;;14.85;100.00;100850.47;10466490;28;20011;-66
2022/07/16 23:21:15;;;;;;;;;;;;;;;14.84;100.00;100855.72;10477579;28;19960;-65
2022/07/16 23:26:19;;;;;;;;;;;;;;;14.91;100.00;100854.69;10548164;28;19928;-66
2022/07/16 23:31:22;;;;;;;;;;;;;;;14.90;100.00;100861.69;10546537;28;19931;-68
2022/07/16 23:36:26;;;;;;;;;;;;;;;15.00;100.00;100862.38;10546488;28;20024;-65
2022/07/16 23:41:29;;;;;;;;;;;;;;;14.89;100.00;100859.94;10546233;28;19931;-67
2022/07/16 23:46:32;;;;;;;;;;;;;;;14.91;100.00;100865.16;10546058;28;19935;-71
2022/07/16 23:51:37;;;;;;;;;;;;;;;15.05;100.00;100873.59;10545903;28;20007;-66
2022/07/16 23:56:40;;;;;;;;;;;;;;;15.06;100.00;100877.94;10545671;28;20014;-65
